sensor_id;sensor_type;location;lat;lon;timestamp;temperature;humidity
69595;DHT22;56800;52.142;5.364;2023-07-24T00:00:05;19.50;73.30
69595;DHT22;56800;52.142;5.364;2023-07-24T00:02:32;19.40;73.20
69595;DHT22;56800;52.142;5.364;2023-07-24T00:04:58;19.40;73.20
69595;DHT22;56800;52.142;5.364;2023-07-24T00:07:25;19.40;73.20
69595;DHT22;56800;52.142;5.364;2023-07-24T00:09:52;19.40;73.10
69595;DHT22;56800;52.142;5.364;2023-07-24T00:12:19;19.40;73.10
69595;DHT22;56800;52.142;5.364;2023-07-24T00:14:45;19.40;72.90
69595;DHT22;56800;52.142;5.364;2023-07-24T00:17:12;19.40;72.80
69595;DHT22;56800;52.142;5.364;2023-07-24T00:19:39;19.40;72.80
69595;DHT22;56800;52.142;5.364;2023-07-24T00:22:06;19.40;72.80
69595;DHT22;56800;52.142;5.364;2023-07-24T00:24:32;19.30;72.70
69595;DHT22;56800;52.142;5.364;2023-07-24T00:26:59;19.30;72.80
69595;DHT22;56800;52.142;5.364;2023-07-24T00:29:26;19.30;72.70
69595;DHT22;56800;52.142;5.364;2023-07-24T00:31:53;19.30;72.70
69595;DHT22;56800;52.142;5.364;2023-07-24T00:34:19;19.30;72.70
69595;DHT22;56800;52.142;5.364;2023-07-24T00:36:46;19.20;72.70
69595;DHT22;56800;52.142;5.364;2023-07-24T00:39:16;19.20;72.70
69595;DHT22;56800;52.142;5.364;2023-07-24T00:41:43;19.20;72.80
69595;DHT22;56800;52.142;5.364;2023-07-24T00:44:10;19.20;72.70
69595;DHT22;56800;52.142;5.364;2023-07-24T00:46:37;19.20;72.80
69595;DHT22;56800;52.142;5.364;2023-07-24T00:49:04;19.10;72.80
69595;DHT22;56800;52.142;5.364;2023-07-24T00:51:32;19.10;72.80
69595;DHT22;56800;52.142;5.364;2023-07-24T00:54:01;19.10;72.90
69595;DHT22;56800;52.142;5.364;2023-07-24T00:56:29;19.10;73.00
69595;DHT22;56800;52.142;5.364;2023-07-24T00:58:57;19.00;73.00
69595;DHT22;56800;52.142;5.364;2023-07-24T01:01:25;19.00;73.00
69595;DHT22;56800;52.142;5.364;2023-07-24T01:03:52;19.00;73.10
69595;DHT22;56800;52.142;5.364;2023-07-24T01:06:19;19.00;73.10
69595;DHT22;56800;52.142;5.364;2023-07-24T01:08:46;19.00;73.10
69595;DHT22;56800;52.142;5.364;2023-07-24T01:11:19;19.00;73.00
69595;DHT22;56800;52.142;5.364;2023-07-24T01:14:02;19.00;73.10
69595;DHT22;56800;52.142;5.364;2023-07-24T01:16:37;19.00;73.00
69595;DHT22;56800;52.142;5.364;2023-07-24T01:19:33;19.00;73.00
69595;DHT22;56800;52.142;5.364;2023-07-24T01:25:31;18.90;73.10
69595;DHT22;56800;52.142;5.364;2023-07-24T01:27:58;18.90;73.10
69595;DHT22;56800;52.142;5.364;2023-07-24T01:30:24;18.90;73.00
69595;DHT22;56800;52.142;5.364;2023-07-24T01:32:51;19.00;73.10
69595;DHT22;56800;52.142;5.364;2023-07-24T01:35:18;18.90;73.10
69595;DHT22;56800;52.142;5.364;2023-07-24T01:37:46;18.90;73.10
69595;DHT22;56800;52.142;5.364;2023-07-24T01:40:13;18.90;73.10
69595;DHT22;56800;52.142;5.364;2023-07-24T01:42:41;18.90;73.20
69595;DHT22;56800;52.142;5.364;2023-07-24T01:45:08;18.90;73.20
69595;DHT22;56800;52.142;5.364;2023-07-24T01:47:35;18.90;73.20
69595;DHT22;56800;52.142;5.364;2023-07-24T01:50:02;18.90;73.30
69595;DHT22;56800;52.142;5.364;2023-07-24T01:52:29;18.90;73.30
69595;DHT22;56800;52.142;5.364;2023-07-24T01:54:55;18.90;74.10
69595;DHT22;56800;52.142;5.364;2023-07-24T01:57:22;18.90;73.40
69595;DHT22;56800;52.142;5.364;2023-07-24T01:59:49;18.90;73.30
69595;DHT22;56800;52.142;5.364;2023-07-24T02:02:16;18.90;73.30
69595;DHT22;56800;52.142;5.364;2023-07-24T02:04:42;18.90;73.40
69595;DHT22;56800;52.142;5.364;2023-07-24T02:07:09;18.90;73.50
69595;DHT22;56800;52.142;5.364;2023-07-24T02:09:36;18.90;73.60
69595;DHT22;56800;52.142;5.364;2023-07-24T02:12:03;18.90;73.70
69595;DHT22;56800;52.142;5.364;2023-07-24T02:14:29;18.90;73.70
69595;DHT22;56800;52.142;5.364;2023-07-24T02:16:56;18.90;73.80
69595;DHT22;56800;52.142;5.364;2023-07-24T02:19:23;18.90;73.90
69595;DHT22;56800;52.142;5.364;2023-07-24T02:21:50;18.90;74.00
69595;DHT22;56800;52.142;5.364;2023-07-24T02:24:16;18.90;74.10
69595;DHT22;56800;52.142;5.364;2023-07-24T02:26:43;18.90;74.10
69595;DHT22;56800;52.142;5.364;2023-07-24T02:29:10;18.90;74.20
69595;DHT22;56800;52.142;5.364;2023-07-24T02:31:36;18.90;74.30
69595;DHT22;56800;52.142;5.364;2023-07-24T02:34:03;18.90;74.40
69595;DHT22;56800;52.142;5.364;2023-07-24T02:36:30;18.90;74.50
69595;DHT22;56800;52.142;5.364;2023-07-24T02:38:57;18.80;74.50
69595;DHT22;56800;52.142;5.364;2023-07-24T02:41:24;18.80;74.50
69595;DHT22;56800;52.142;5.364;2023-07-24T02:43:50;18.90;74.60
69595;DHT22;56800;52.142;5.364;2023-07-24T02:46:17;18.80;74.50
69595;DHT22;56800;52.142;5.364;2023-07-24T02:48:44;18.90;74.60
69595;DHT22;56800;52.142;5.364;2023-07-24T02:51:11;18.80;75.30
69595;DHT22;56800;52.142;5.364;2023-07-24T02:53:37;18.80;74.70
69595;DHT22;56800;52.142;5.364;2023-07-24T02:56:04;18.80;74.80
69595;DHT22;56800;52.142;5.364;2023-07-24T02:58:31;18.80;74.90
69595;DHT22;56800;52.142;5.364;2023-07-24T03:01:15;18.80;74.90
69595;DHT22;56800;52.142;5.364;2023-07-24T03:03:42;18.80;75.00
69595;DHT22;56800;52.142;5.364;2023-07-24T03:06:09;18.80;75.10
69595;DHT22;56800;52.142;5.364;2023-07-24T03:08:36;18.80;75.10
69595;DHT22;56800;52.142;5.364;2023-07-24T03:11:05;18.80;75.20
69595;DHT22;56800;52.142;5.364;2023-07-24T03:13:32;18.80;75.30
69595;DHT22;56800;52.142;5.364;2023-07-24T03:15:58;18.80;75.40
69595;DHT22;56800;52.142;5.364;2023-07-24T03:18:25;18.70;75.40
69595;DHT22;56800;52.142;5.364;2023-07-24T03:20:52;18.70;75.70
69595;DHT22;56800;52.142;5.364;2023-07-24T03:23:19;18.70;75.60
69595;DHT22;56800;52.142;5.364;2023-07-24T03:25:46;18.70;75.70
69595;DHT22;56800;52.142;5.364;2023-07-24T03:28:13;18.70;75.70
69595;DHT22;56800;52.142;5.364;2023-07-24T03:30:40;18.70;75.70
69595;DHT22;56800;52.142;5.364;2023-07-24T03:33:07;18.70;75.80
69595;DHT22;56800;52.142;5.364;2023-07-24T03:35:34;18.70;75.80
69595;DHT22;56800;52.142;5.364;2023-07-24T03:38:01;18.70;75.90
69595;DHT22;56800;52.142;5.364;2023-07-24T03:40:27;18.60;75.80
69595;DHT22;56800;52.142;5.364;2023-07-24T03:42:54;18.70;76.00
69595;DHT22;56800;52.142;5.364;2023-07-24T03:45:21;18.60;75.90
69595;DHT22;56800;52.142;5.364;2023-07-24T03:47:48;18.70;76.00
69595;DHT22;56800;52.142;5.364;2023-07-24T03:50:16;18.60;76.00
69595;DHT22;56800;52.142;5.364;2023-07-24T03:52:43;18.60;76.00
69595;DHT22;56800;52.142;5.364;2023-07-24T03:55:10;18.60;76.00
69595;DHT22;56800;52.142;5.364;2023-07-24T03:57:37;18.60;76.00
69595;DHT22;56800;52.142;5.364;2023-07-24T04:00:04;18.60;76.00
69595;DHT22;56800;52.142;5.364;2023-07-24T04:02:31;18.60;76.00
69595;DHT22;56800;52.142;5.364;2023-07-24T04:04:58;18.60;76.00
69595;DHT22;56800;52.142;5.364;2023-07-24T04:07:24;18.60;76.00
69595;DHT22;56800;52.142;5.364;2023-07-24T04:09:51;18.60;76.00
69595;DHT22;56800;52.142;5.364;2023-07-24T04:12:18;18.50;76.00
69595;DHT22;56800;52.142;5.364;2023-07-24T04:14:44;18.50;76.10
69595;DHT22;56800;52.142;5.364;2023-07-24T04:17:11;18.50;76.10
69595;DHT22;56800;52.142;5.364;2023-07-24T04:19:38;18.50;77.00
69595;DHT22;56800;52.142;5.364;2023-07-24T04:22:05;18.50;76.20
69595;DHT22;56800;52.142;5.364;2023-07-24T04:24:31;18.50;76.30
69595;DHT22;56800;52.142;5.364;2023-07-24T04:26:58;18.50;76.30
69595;DHT22;56800;52.142;5.364;2023-07-24T04:29:25;18.50;76.40
69595;DHT22;56800;52.142;5.364;2023-07-24T04:31:52;18.50;76.40
69595;DHT22;56800;52.142;5.364;2023-07-24T04:34:19;18.50;76.50
69595;DHT22;56800;52.142;5.364;2023-07-24T04:36:46;18.50;76.50
69595;DHT22;56800;52.142;5.364;2023-07-24T04:39:12;18.50;77.30
69595;DHT22;56800;52.142;5.364;2023-07-24T04:41:39;18.50;76.50
69595;DHT22;56800;52.142;5.364;2023-07-24T04:44:06;18.40;76.50
69595;DHT22;56800;52.142;5.364;2023-07-24T04:46:33;18.50;76.60
69595;DHT22;56800;52.142;5.364;2023-07-24T04:49:00;18.50;76.60
69595;DHT22;56800;52.142;5.364;2023-07-24T04:51:27;18.50;76.60
69595;DHT22;56800;52.142;5.364;2023-07-24T04:53:54;18.50;76.60
69595;DHT22;56800;52.142;5.364;2023-07-24T04:56:20;18.40;76.70
69595;DHT22;56800;52.142;5.364;2023-07-24T04:58:47;18.50;76.80
69595;DHT22;56800;52.142;5.364;2023-07-24T05:01:14;18.40;76.70
69595;DHT22;56800;52.142;5.364;2023-07-24T05:03:41;18.40;76.70
69595;DHT22;56800;52.142;5.364;2023-07-24T05:06:07;18.40;76.70
69595;DHT22;56800;52.142;5.364;2023-07-24T05:08:34;18.40;76.70
69595;DHT22;56800;52.142;5.364;2023-07-24T05:11:01;18.40;76.70
69595;DHT22;56800;52.142;5.364;2023-07-24T05:13:27;18.40;76.80
69595;DHT22;56800;52.142;5.364;2023-07-24T05:15:54;18.40;76.80
69595;DHT22;56800;52.142;5.364;2023-07-24T05:18:21;18.40;76.80
69595;DHT22;56800;52.142;5.364;2023-07-24T05:20:48;18.40;76.90
69595;DHT22;56800;52.142;5.364;2023-07-24T05:23:17;18.40;76.70
69595;DHT22;56800;52.142;5.364;2023-07-24T05:25:44;18.40;76.80
69595;DHT22;56800;52.142;5.364;2023-07-24T05:28:11;18.40;76.80
69595;DHT22;56800;52.142;5.364;2023-07-24T05:30:38;18.40;76.80
69595;DHT22;56800;52.142;5.364;2023-07-24T05:33:04;18.40;76.80
69595;DHT22;56800;52.142;5.364;2023-07-24T05:35:31;18.40;76.80
69595;DHT22;56800;52.142;5.364;2023-07-24T05:37:58;18.40;76.80
69595;DHT22;56800;52.142;5.364;2023-07-24T05:40:25;18.40;76.80
69595;DHT22;56800;52.142;5.364;2023-07-24T05:42:51;18.40;76.80
69595;DHT22;56800;52.142;5.364;2023-07-24T05:45:18;18.40;76.70
69595;DHT22;56800;52.142;5.364;2023-07-24T05:47:45;18.40;76.60
69595;DHT22;56800;52.142;5.364;2023-07-24T05:50:11;18.40;76.60
69595;DHT22;56800;52.142;5.364;2023-07-24T05:52:40;18.40;76.50
69595;DHT22;56800;52.142;5.364;2023-07-24T05:55:08;18.40;76.70
69595;DHT22;56800;52.142;5.364;2023-07-24T05:57:35;18.40;76.40
69595;DHT22;56800;52.142;5.364;2023-07-24T06:00:03;18.40;76.50
69595;DHT22;56800;52.142;5.364;2023-07-24T06:02:30;18.40;76.40
69595;DHT22;56800;52.142;5.364;2023-07-24T06:04:57;18.50;76.40
69595;DHT22;56800;52.142;5.364;2023-07-24T06:07:24;18.50;76.40
69595;DHT22;56800;52.142;5.364;2023-07-24T06:09:51;18.50;76.30
69595;DHT22;56800;52.142;5.364;2023-07-24T06:12:17;18.50;76.20
69595;DHT22;56800;52.142;5.364;2023-07-24T06:14:44;18.50;76.80
69595;DHT22;56800;52.142;5.364;2023-07-24T06:17:11;18.50;76.00
69595;DHT22;56800;52.142;5.364;2023-07-24T06:19:38;18.50;75.90
69595;DHT22;56800;52.142;5.364;2023-07-24T06:22:05;18.60;75.80
69595;DHT22;56800;52.142;5.364;2023-07-24T06:24:31;18.50;75.90
69595;DHT22;56800;52.142;5.364;2023-07-24T06:26:58;18.60;75.80
69595;DHT22;56800;52.142;5.364;2023-07-24T06:29:25;18.70;75.70
69595;DHT22;56800;52.142;5.364;2023-07-24T06:31:52;18.70;75.70
69595;DHT22;56800;52.142;5.364;2023-07-24T06:34:19;18.80;75.60
69595;DHT22;56800;52.142;5.364;2023-07-24T06:36:46;18.80;75.40
69595;DHT22;56800;52.142;5.364;2023-07-24T06:39:12;18.80;75.20
69595;DHT22;56800;52.142;5.364;2023-07-24T06:41:39;18.80;75.10
69595;DHT22;56800;52.142;5.364;2023-07-24T06:44:06;18.80;75.00
69595;DHT22;56800;52.142;5.364;2023-07-24T06:46:32;18.90;74.90
69595;DHT22;56800;52.142;5.364;2023-07-24T06:48:59;18.90;74.70
69595;DHT22;56800;52.142;5.364;2023-07-24T06:51:26;19.00;75.40
69595;DHT22;56800;52.142;5.364;2023-07-24T06:53:52;19.00;74.20
69595;DHT22;56800;52.142;5.364;2023-07-24T06:56:19;19.00;74.10
69595;DHT22;56800;52.142;5.364;2023-07-24T06:58:46;19.00;74.10
69595;DHT22;56800;52.142;5.364;2023-07-24T07:01:12;19.10;73.90
69595;DHT22;56800;52.142;5.364;2023-07-24T07:03:39;19.10;73.70
69595;DHT22;56800;52.142;5.364;2023-07-24T07:06:06;19.10;73.70
69595;DHT22;56800;52.142;5.364;2023-07-24T07:08:33;19.20;74.40
69595;DHT22;56800;52.142;5.364;2023-07-24T07:11:00;19.20;73.50
69595;DHT22;56800;52.142;5.364;2023-07-24T07:13:27;19.20;73.30
69595;DHT22;56800;52.142;5.364;2023-07-24T07:15:54;19.30;73.20
69595;DHT22;56800;52.142;5.364;2023-07-24T07:18:21;19.40;73.10
69595;DHT22;56800;52.142;5.364;2023-07-24T07:20:51;19.40;73.10
69595;DHT22;56800;52.142;5.364;2023-07-24T07:23:19;19.50;73.00
69595;DHT22;56800;52.142;5.364;2023-07-24T07:25:45;19.50;72.70
69595;DHT22;56800;52.142;5.364;2023-07-24T07:28:16;19.60;72.70
69595;DHT22;56800;52.142;5.364;2023-07-24T07:30:43;19.60;72.10
69595;DHT22;56800;52.142;5.364;2023-07-24T07:33:11;19.60;71.90
69595;DHT22;56800;52.142;5.364;2023-07-24T07:35:38;19.60;71.80
69595;DHT22;56800;52.142;5.364;2023-07-24T07:38:05;19.60;71.50
69595;DHT22;56800;52.142;5.364;2023-07-24T07:40:32;19.60;71.40
69595;DHT22;56800;52.142;5.364;2023-07-24T07:42:59;19.60;71.30
69595;DHT22;56800;52.142;5.364;2023-07-24T07:45:25;19.60;71.20
69595;DHT22;56800;52.142;5.364;2023-07-24T07:47:52;19.60;71.10
69595;DHT22;56800;52.142;5.364;2023-07-24T07:50:20;19.70;71.20
69595;DHT22;56800;52.142;5.364;2023-07-24T07:52:50;19.80;71.10
69595;DHT22;56800;52.142;5.364;2023-07-24T07:55:18;19.80;70.80
69595;DHT22;56800;52.142;5.364;2023-07-24T07:57:45;19.90;70.80
69595;DHT22;56800;52.142;5.364;2023-07-24T08:00:12;19.90;70.60
69595;DHT22;56800;52.142;5.364;2023-07-24T08:02:39;20.00;70.50
69595;DHT22;56800;52.142;5.364;2023-07-24T08:05:10;20.00;70.50
69595;DHT22;56800;52.142;5.364;2023-07-24T08:07:46;20.10;71.30
69595;DHT22;56800;52.142;5.364;2023-07-24T08:10:13;20.10;70.40
69595;DHT22;56800;52.142;5.364;2023-07-24T08:12:43;20.10;70.10
69595;DHT22;56800;52.142;5.364;2023-07-24T08:15:10;20.10;69.90
69595;DHT22;56800;52.142;5.364;2023-07-24T08:17:37;20.20;69.90
69595;DHT22;56800;52.142;5.364;2023-07-24T08:20:05;20.20;70.00
69595;DHT22;56800;52.142;5.364;2023-07-24T08:22:32;20.30;69.60
69595;DHT22;56800;52.142;5.364;2023-07-24T08:24:58;20.40;69.40
69595;DHT22;56800;52.142;5.364;2023-07-24T08:27:25;20.50;69.20
69595;DHT22;56800;52.142;5.364;2023-07-24T08:29:52;20.60;69.20
69595;DHT22;56800;52.142;5.364;2023-07-24T08:32:19;20.70;69.20
69595;DHT22;56800;52.142;5.364;2023-07-24T08:34:46;20.70;69.00
69595;DHT22;56800;52.142;5.364;2023-07-24T08:37:13;20.70;69.00
69595;DHT22;56800;52.142;5.364;2023-07-24T08:39:39;20.80;69.20
69595;DHT22;56800;52.142;5.364;2023-07-24T08:42:11;20.80;68.80
69595;DHT22;56800;52.142;5.364;2023-07-24T08:44:39;20.80;69.40
69595;DHT22;56800;52.142;5.364;2023-07-24T08:47:10;20.90;68.60
69595;DHT22;56800;52.142;5.364;2023-07-24T08:49:38;20.90;68.50
69595;DHT22;56800;52.142;5.364;2023-07-24T08:52:07;21.00;68.50
69595;DHT22;56800;52.142;5.364;2023-07-24T08:54:38;21.10;68.20
69595;DHT22;56800;52.142;5.364;2023-07-24T08:57:08;21.10;67.50
69595;DHT22;56800;52.142;5.364;2023-07-24T08:59:35;21.20;67.30
69595;DHT22;56800;52.142;5.364;2023-07-24T09:02:02;21.10;66.50
69595;DHT22;56800;52.142;5.364;2023-07-24T09:04:29;21.20;66.50
69595;DHT22;56800;52.142;5.364;2023-07-24T09:06:57;21.20;66.70
69595;DHT22;56800;52.142;5.364;2023-07-24T09:09:29;21.20;66.50
69595;DHT22;56800;52.142;5.364;2023-07-24T09:11:56;21.30;66.50
69595;DHT22;56800;52.142;5.364;2023-07-24T09:14:26;21.30;66.80
69595;DHT22;56800;52.142;5.364;2023-07-24T09:17:10;21.30;66.60
69595;DHT22;56800;52.142;5.364;2023-07-24T09:19:38;21.30;66.20
69595;DHT22;56800;52.142;5.364;2023-07-24T09:22:11;21.30;66.30
69595;DHT22;56800;52.142;5.364;2023-07-24T09:24:50;21.40;66.50
69595;DHT22;56800;52.142;5.364;2023-07-24T09:27:17;21.40;66.30
69595;DHT22;56800;52.142;5.364;2023-07-24T09:29:46;21.40;66.30
69595;DHT22;56800;52.142;5.364;2023-07-24T09:32:25;21.40;66.00
69595;DHT22;56800;52.142;5.364;2023-07-24T09:34:53;21.40;65.60
69595;DHT22;56800;52.142;5.364;2023-07-24T09:37:27;21.30;65.60
69595;DHT22;56800;52.142;5.364;2023-07-24T09:39:54;21.20;65.70
69595;DHT22;56800;52.142;5.364;2023-07-24T09:42:31;21.20;66.00
69595;DHT22;56800;52.142;5.364;2023-07-24T09:44:58;21.20;65.80
69595;DHT22;56800;52.142;5.364;2023-07-24T09:47:26;21.20;65.80
69595;DHT22;56800;52.142;5.364;2023-07-24T09:50:12;21.10;66.00
69595;DHT22;56800;52.142;5.364;2023-07-24T09:52:41;21.10;66.10
69595;DHT22;56800;52.142;5.364;2023-07-24T09:55:12;21.10;65.80
69595;DHT22;56800;52.142;5.364;2023-07-24T09:57:41;21.10;65.90
69595;DHT22;56800;52.142;5.364;2023-07-24T10:00:11;21.20;66.00
69595;DHT22;56800;52.142;5.364;2023-07-24T10:02:39;21.20;65.90
69595;DHT22;56800;52.142;5.364;2023-07-24T10:05:07;21.30;65.40
69595;DHT22;56800;52.142;5.364;2023-07-24T10:07:34;21.30;65.20
69595;DHT22;56800;52.142;5.364;2023-07-24T10:10:01;21.30;65.20
69595;DHT22;56800;52.142;5.364;2023-07-24T10:12:29;21.40;65.30
69595;DHT22;56800;52.142;5.364;2023-07-24T10:14:57;21.50;65.20
69595;DHT22;56800;52.142;5.364;2023-07-24T10:17:34;21.70;64.90
69595;DHT22;56800;52.142;5.364;2023-07-24T10:20:04;21.70;64.60
69595;DHT22;56800;52.142;5.364;2023-07-24T10:22:31;21.80;64.30
69595;DHT22;56800;52.142;5.364;2023-07-24T10:24:58;21.70;64.10
69595;DHT22;56800;52.142;5.364;2023-07-24T10:27:25;21.70;63.90
69595;DHT22;56800;52.142;5.364;2023-07-24T10:30:02;21.60;63.60
69595;DHT22;56800;52.142;5.364;2023-07-24T10:32:48;21.50;63.60
69595;DHT22;56800;52.142;5.364;2023-07-24T10:35:21;21.40;63.60
69595;DHT22;56800;52.142;5.364;2023-07-24T10:37:59;21.40;63.90
69595;DHT22;56800;52.142;5.364;2023-07-24T10:40:26;21.50;64.30
69595;DHT22;56800;52.142;5.364;2023-07-24T10:43:10;21.60;64.40
69595;DHT22;56800;52.142;5.364;2023-07-24T10:45:47;21.80;64.10
69595;DHT22;56800;52.142;5.364;2023-07-24T10:48:17;21.90;63.60
69595;DHT22;56800;52.142;5.364;2023-07-24T10:50:45;22.00;63.20
69595;DHT22;56800;52.142;5.364;2023-07-24T10:53:17;22.10;63.40
69595;DHT22;56800;52.142;5.364;2023-07-24T10:55:45;22.20;63.60
69595;DHT22;56800;52.142;5.364;2023-07-24T10:58:14;22.40;63.20
69595;DHT22;56800;52.142;5.364;2023-07-24T11:00:41;22.50;62.80
69595;DHT22;56800;52.142;5.364;2023-07-24T11:03:12;22.70;62.70
69595;DHT22;56800;52.142;5.364;2023-07-24T11:05:41;22.80;62.60
69595;DHT22;56800;52.142;5.364;2023-07-24T11:10:36;22.90;61.90
69595;DHT22;56800;52.142;5.364;2023-07-24T11:13:03;22.90;61.60
69595;DHT22;56800;52.142;5.364;2023-07-24T11:15:29;22.90;61.50
69595;DHT22;56800;52.142;5.364;2023-07-24T11:17:56;22.90;61.00
69595;DHT22;56800;52.142;5.364;2023-07-24T11:20:23;22.80;60.90
69595;DHT22;56800;52.142;5.364;2023-07-24T11:22:50;22.90;61.40
69595;DHT22;56800;52.142;5.364;2023-07-24T11:25:17;23.00;61.80
69595;DHT22;56800;52.142;5.364;2023-07-24T11:27:44;23.10;61.10
69595;DHT22;56800;52.142;5.364;2023-07-24T11:30:11;23.20;60.80
69595;DHT22;56800;52.142;5.364;2023-07-24T11:32:40;23.30;61.00
69595;DHT22;56800;52.142;5.364;2023-07-24T11:35:08;23.40;60.40
69595;DHT22;56800;52.142;5.364;2023-07-24T11:37:36;23.40;60.00
69595;DHT22;56800;52.142;5.364;2023-07-24T11:40:04;23.40;60.00
69595;DHT22;56800;52.142;5.364;2023-07-24T11:42:40;23.30;59.80
69595;DHT22;56800;52.142;5.364;2023-07-24T11:45:09;23.20;59.40
69595;DHT22;56800;52.142;5.364;2023-07-24T11:47:43;23.10;60.00
69595;DHT22;56800;52.142;5.364;2023-07-24T11:50:10;23.00;60.00
69595;DHT22;56800;52.142;5.364;2023-07-24T11:52:45;22.90;60.30
69595;DHT22;56800;52.142;5.364;2023-07-24T11:55:17;22.90;60.60
69595;DHT22;56800;52.142;5.364;2023-07-24T11:57:55;22.80;60.80
69595;DHT22;56800;52.142;5.364;2023-07-24T12:00:22;22.60;61.20
69595;DHT22;56800;52.142;5.364;2023-07-24T12:02:50;22.60;61.70
69595;DHT22;56800;52.142;5.364;2023-07-24T12:05:18;22.50;61.60
69595;DHT22;56800;52.142;5.364;2023-07-24T12:07:45;22.50;61.50
69595;DHT22;56800;52.142;5.364;2023-07-24T12:10:13;22.40;61.70
69595;DHT22;56800;52.142;5.364;2023-07-24T12:12:47;22.40;61.70
69595;DHT22;56800;52.142;5.364;2023-07-24T12:15:14;22.40;61.80
69595;DHT22;56800;52.142;5.364;2023-07-24T12:17:41;22.40;62.10
69595;DHT22;56800;52.142;5.364;2023-07-24T12:20:09;22.50;62.90
69595;DHT22;56800;52.142;5.364;2023-07-24T12:22:39;22.50;62.00
69595;DHT22;56800;52.142;5.364;2023-07-24T12:25:06;22.60;62.10
69595;DHT22;56800;52.142;5.364;2023-07-24T12:27:33;22.70;61.80
69595;DHT22;56800;52.142;5.364;2023-07-24T12:30:00;22.70;61.90
69595;DHT22;56800;52.142;5.364;2023-07-24T12:32:27;22.70;61.90
69595;DHT22;56800;52.142;5.364;2023-07-24T12:34:54;22.70;62.00
69595;DHT22;56800;52.142;5.364;2023-07-24T12:37:20;22.70;62.90
69595;DHT22;56800;52.142;5.364;2023-07-24T12:39:48;22.70;62.20
69595;DHT22;56800;52.142;5.364;2023-07-24T12:42:15;22.70;61.90
69595;DHT22;56800;52.142;5.364;2023-07-24T12:44:43;22.60;61.60
69595;DHT22;56800;52.142;5.364;2023-07-24T12:47:11;22.50;61.90
69595;DHT22;56800;52.142;5.364;2023-07-24T12:49:38;22.30;63.40
69595;DHT22;56800;52.142;5.364;2023-07-24T12:52:06;22.00;64.00
69595;DHT22;56800;52.142;5.364;2023-07-24T12:54:33;21.70;65.00
69595;DHT22;56800;52.142;5.364;2023-07-24T12:57:20;21.50;65.70
69595;DHT22;56800;52.142;5.364;2023-07-24T12:59:47;21.20;66.30
69595;DHT22;56800;52.142;5.364;2023-07-24T13:02:14;21.00;66.80
69595;DHT22;56800;52.142;5.364;2023-07-24T13:04:42;20.90;67.20
69595;DHT22;56800;52.142;5.364;2023-07-24T13:07:09;20.90;67.80
69595;DHT22;56800;52.142;5.364;2023-07-24T13:09:35;20.80;68.20
69595;DHT22;56800;52.142;5.364;2023-07-24T13:12:02;20.70;68.60
69595;DHT22;56800;52.142;5.364;2023-07-24T13:14:29;20.60;69.00
69595;DHT22;56800;52.142;5.364;2023-07-24T13:16:56;20.60;69.40
69595;DHT22;56800;52.142;5.364;2023-07-24T13:19:23;20.60;69.80
69595;DHT22;56800;52.142;5.364;2023-07-24T13:21:49;20.60;70.10
69595;DHT22;56800;52.142;5.364;2023-07-24T13:24:16;20.50;70.40
69595;DHT22;56800;52.142;5.364;2023-07-24T13:26:43;20.50;70.60
69595;DHT22;56800;52.142;5.364;2023-07-24T13:29:10;20.50;71.60
69595;DHT22;56800;52.142;5.364;2023-07-24T13:31:37;20.40;70.80
69595;DHT22;56800;52.142;5.364;2023-07-24T13:34:03;20.40;70.80
69595;DHT22;56800;52.142;5.364;2023-07-24T13:36:30;20.40;71.00
69595;DHT22;56800;52.142;5.364;2023-07-24T13:38:57;20.30;71.10
69595;DHT22;56800;52.142;5.364;2023-07-24T13:41:24;20.30;71.30
69595;DHT22;56800;52.142;5.364;2023-07-24T13:43:51;20.20;71.30
69595;DHT22;56800;52.142;5.364;2023-07-24T13:46:18;20.20;71.50
69595;DHT22;56800;52.142;5.364;2023-07-24T13:48:45;20.20;71.60
69595;DHT22;56800;52.142;5.364;2023-07-24T13:51:11;20.20;71.80
69595;DHT22;56800;52.142;5.364;2023-07-24T13:53:38;20.10;72.00
69595;DHT22;56800;52.142;5.364;2023-07-24T13:56:05;20.20;73.10
69595;DHT22;56800;52.142;5.364;2023-07-24T13:58:32;20.20;72.30
69595;DHT22;56800;52.142;5.364;2023-07-24T14:00:59;20.10;72.60
69595;DHT22;56800;52.142;5.364;2023-07-24T14:03:26;20.20;72.90
69595;DHT22;56800;52.142;5.364;2023-07-24T14:05:56;20.30;73.20
69595;DHT22;56800;52.142;5.364;2023-07-24T14:08:23;20.50;73.70
69595;DHT22;56800;52.142;5.364;2023-07-24T14:10:50;20.60;73.50
69595;DHT22;56800;52.142;5.364;2023-07-24T14:13:17;20.70;73.50
69595;DHT22;56800;52.142;5.364;2023-07-24T14:15:44;20.80;73.60
69595;DHT22;56800;52.142;5.364;2023-07-24T14:18:11;20.80;73.20
69595;DHT22;56800;52.142;5.364;2023-07-24T14:20:38;20.90;72.80
69595;DHT22;56800;52.142;5.364;2023-07-24T14:23:07;20.80;72.30
69595;DHT22;56800;52.142;5.364;2023-07-24T14:25:34;20.80;72.00
69595;DHT22;56800;52.142;5.364;2023-07-24T14:28:01;20.80;72.10
69595;DHT22;56800;52.142;5.364;2023-07-24T14:30:28;20.70;72.20
69595;DHT22;56800;52.142;5.364;2023-07-24T14:32:55;20.70;72.20
69595;DHT22;56800;52.142;5.364;2023-07-24T14:35:22;20.70;73.40
69595;DHT22;56800;52.142;5.364;2023-07-24T14:37:48;20.80;72.80
69595;DHT22;56800;52.142;5.364;2023-07-24T14:40:15;20.90;72.40
69595;DHT22;56800;52.142;5.364;2023-07-24T14:42:42;20.90;72.20
69595;DHT22;56800;52.142;5.364;2023-07-24T14:45:09;20.90;72.00
69595;DHT22;56800;52.142;5.364;2023-07-24T14:47:36;20.90;71.80
69595;DHT22;56800;52.142;5.364;2023-07-24T14:50:03;21.00;72.00
69595;DHT22;56800;52.142;5.364;2023-07-24T14:52:30;21.10;71.40
69595;DHT22;56800;52.142;5.364;2023-07-24T14:54:56;21.20;71.10
69595;DHT22;56800;52.142;5.364;2023-07-24T14:57:24;21.20;70.10
69595;DHT22;56800;52.142;5.364;2023-07-24T14:59:52;21.20;69.60
69595;DHT22;56800;52.142;5.364;2023-07-24T15:02:19;21.10;70.20
69595;DHT22;56800;52.142;5.364;2023-07-24T15:04:46;20.90;69.00
69595;DHT22;56800;52.142;5.364;2023-07-24T15:07:13;20.90;69.80
69595;DHT22;56800;52.142;5.364;2023-07-24T15:09:40;20.90;69.60
69595;DHT22;56800;52.142;5.364;2023-07-24T15:12:07;20.90;68.90
69595;DHT22;56800;52.142;5.364;2023-07-24T15:14:34;20.90;68.80
69595;DHT22;56800;52.142;5.364;2023-07-24T15:17:00;20.90;68.80
69595;DHT22;56800;52.142;5.364;2023-07-24T15:19:27;20.90;68.80
69595;DHT22;56800;52.142;5.364;2023-07-24T15:21:54;20.90;68.90
69595;DHT22;56800;52.142;5.364;2023-07-24T15:24:20;20.90;68.60
69595;DHT22;56800;52.142;5.364;2023-07-24T15:26:47;20.90;68.30
69595;DHT22;56800;52.142;5.364;2023-07-24T15:29:14;20.80;68.10
69595;DHT22;56800;52.142;5.364;2023-07-24T15:31:45;20.70;67.90
69595;DHT22;56800;52.142;5.364;2023-07-24T15:34:12;20.70;67.90
69595;DHT22;56800;52.142;5.364;2023-07-24T15:36:38;20.60;68.00
69595;DHT22;56800;52.142;5.364;2023-07-24T15:39:05;20.50;68.10